Time;durP1;ratioP1;P1;durP2;ratioP2;P2;SDS_P1;SDS_P2;PMS_P1;PMS_P2;Temp;Humidity;BMP_temperature;BMP_pressure;BME280_temperature;BME280_humidity;BME280_pressure;Samples;Min_cycle;Max_cycle;Signal;HPM_P1;HPM_P2
2020/12/19 00:01:04;;;;;;;25.38;16.83;;;;;;;1.68;76.76;95862.47;5042745;28;20029;-72
2020/12/19 00:03:29;;;;;;;29.55;19.10;;;;;;;1.64;76.88;95840.34;5030767;28;20026;-71
2020/12/19 00:05:54;;;;;;;25.00;17.83;;;;;;;1.71;76.97;95852.31;5029004;28;20038;-72
2020/12/19 00:08:20;;;;;;;24.15;17.05;;;;;;;1.73;77.09;95831.91;5028818;28;20136;-71
2020/12/19 00:10:45;;;;;;;22.38;17.08;;;;;;;1.91;77.18;95845.91;5029048;28;20076;-71
2020/12/19 00:13:11;;;;;;;28.48;19.50;;;;;;;1.97;76.89;95850.22;5028819;28;20388;-71
2020/12/19 00:15:36;;;;;;;31.40;19.70;;;;;;;1.97;76.70;95829.22;5030732;28;20030;-71
2020/12/19 00:18:01;;;;;;;31.90;18.90;;;;;;;2.07;76.50;95832.06;5028756;28;20103;-74
2020/12/19 00:20:27;;;;;;;30.45;18.85;;;;;;;2.16;76.14;95832.50;5028454;28;20107;-71
2020/12/19 00:22:52;;;;;;;20.48;16.15;;;;;;;2.18;75.95;95828.59;5028514;28;20042;-72
2020/12/19 00:25:17;;;;;;;28.52;18.55;;;;;;;2.07;75.55;95824.19;5027222;28;20034;-72
2020/12/19 00:27:44;;;;;;;21.92;15.93;;;;;;;2.06;75.31;95826.00;5030574;28;20037;-72
2020/12/19 00:30:09;;;;;;;20.65;15.65;;;;;;;1.96;75.29;95822.41;5028514;28;20052;-70
2020/12/19 00:32:39;;;;;;;20.35;16.08;;;;;;;1.86;75.22;95815.13;5027314;28;20033;-70
2020/12/19 00:35:04;;;;;;;16.92;14.30;;;;;;;1.80;75.37;95808.97;5028313;28;20449;-71
2020/12/19 00:37:30;;;;;;;21.90;15.50;;;;;;;1.78;75.48;95812.84;5028603;28;20057;-73
2020/12/19 00:39:55;;;;;;;18.27;15.00;;;;;;;1.55;75.64;95783.03;5030252;28;20029;-73
2020/12/19 00:42:20;;;;;;;22.83;15.77;;;;;;;1.69;75.44;95814.22;5028645;28;20051;-71
2020/12/19 00:44:45;;;;;;;18.40;14.40;;;;;;;1.59;75.77;95806.97;5029012;28;20112;-71
2020/12/19 00:47:11;;;;;;;20.50;15.25;;;;;;;1.52;75.92;95801.84;5027681;28;20195;-71
2020/12/19 00:49:36;;;;;;;19.17;14.43;;;;;;;1.53;75.95;95800.81;5032550;28;20049;-72
2020/12/19 00:52:02;;;;;;;20.20;15.07;;;;;;;1.53;76.08;95805.25;5032384;28;20025;-72
2020/12/19 00:54:27;;;;;;;18.13;14.32;;;;;;;1.42;75.88;95796.38;5033343;28;20132;-71
2020/12/19 00:56:53;;;;;;;16.52;14.18;;;;;;;1.53;75.88;95820.97;5032438;28;20037;-72
2020/12/19 00:59:19;;;;;;;14.63;12.95;;;;;;;1.43;75.85;95805.81;5031974;28;20479;-71
2020/12/19 01:01:44;;;;;;;18.50;15.30;;;;;;;1.43;75.75;95811.06;5032439;28;20125;-71
2020/12/19 01:04:09;;;;;;;19.52;15.38;;;;;;;1.34;75.95;95794.13;5032485;28;20021;-71
2020/12/19 01:06:35;;;;;;;20.55;14.52;;;;;;;1.33;75.79;95795.13;5049485;28;20029;-71
2020/12/19 01:09:02;;;;;;;21.45;15.35;;;;;;;1.21;75.62;95778.63;5032207;28;20040;-72
2020/12/19 01:11:29;;;;;;;18.58;14.10;;;;;;;1.23;75.50;95792.31;5031978;28;20046;-72
2020/12/19 01:13:55;;;;;;;18.40;14.38;;;;;;;1.30;75.74;95803.47;5032082;28;20116;-72
2020/12/19 01:16:23;;;;;;;14.90;13.25;;;;;;;1.20;75.82;95798.78;5031941;28;20069;-71
2020/12/19 01:18:50;;;;;;;16.40;13.85;;;;;;;1.18;75.94;95794.81;5033824;28;20041;-71
2020/12/19 01:21:20;;;;;;;15.25;13.52;;;;;;;1.25;75.85;95811.22;5031870;28;20172;-73
2020/12/19 01:23:47;;;;;;;15.45;13.77;;;;;;;1.20;75.93;95808.47;5032048;28;20053;-71
2020/12/19 01:26:13;;;;;;;15.63;13.25;;;;;;;1.15;75.81;95801.31;5031941;28;20072;-71
2020/12/19 01:28:39;;;;;;;19.08;15.45;;;;;;;1.18;75.78;95813.16;5031408;28;20487;-72
2020/12/19 01:31:06;;;;;;;15.27;13.23;;;;;;;1.16;76.01;95812.56;5031810;28;20171;-71
2020/12/19 01:33:31;;;;;;;15.73;13.35;;;;;;;1.07;75.71;95795.59;5033723;28;20052;-72
2020/12/19 01:35:58;;;;;;;18.45;14.98;;;;;;;1.12;75.88;95806.19;5031688;28;20479;-73
2020/12/19 01:38:24;;;;;;;20.48;15.75;;;;;;;1.07;75.76;95798.22;5031425;28;20083;-72
2020/12/19 01:40:55;;;;;;;24.48;15.88;;;;;;;0.98;75.98;95793.34;5046991;28;20033;-73
2020/12/19 01:43:20;;;;;;;16.83;13.45;;;;;;;1.02;75.79;95791.84;5031539;28;21698;-72
2020/12/19 01:45:47;;;;;;;17.98;13.95;;;;;;;0.98;75.88;95785.47;5033421;28;20030;-72
2020/12/19 01:48:25;;;;;;;15.20;13.60;;;;;;;0.92;75.95;95780.31;5029965;28;20430;-72
2020/12/19 01:50:53;;;;;;;16.30;14.57;;;;;;;0.90;75.62;95780.56;5030177;28;20697;-72
2020/12/19 01:53:22;;;;;;;21.23;16.40;;;;;;;0.92;75.54;95788.19;5029843;28;20047;-72
2020/12/19 01:55:52;;;;;;;19.00;14.43;;;;;;;0.87;75.89;95782.81;5031391;28;20650;-72
2020/12/19 01:58:17;;;;;;;24.10;18.02;;;;;;;0.89;75.83;95789.44;5030592;28;20084;-72
2020/12/19 02:00:43;;;;;;;20.85;15.85;;;;;;;0.89;75.72;95786.03;5033091;28;20072;-72
2020/12/19 02:03:09;;;;;;;26.55;18.60;;;;;;;0.86;75.71;95782.03;5029693;28;20047;-73
2020/12/19 02:05:41;;;;;;;21.15;16.15;;;;;;;0.81;75.88;95779.28;5031603;28;20083;-72
2020/12/19 02:08:07;;;;;;;20.30;15.68;;;;;;;0.70;75.85;95772.22;5029781;28;20046;-70
2020/12/19 02:10:34;;;;;;;17.83;14.35;;;;;;;0.63;75.87;95761.06;5030880;28;20128;-73
2020/12/19 02:13:04;;;;;;;16.27;13.60;;;;;;;0.80;76.05;95782.16;5030967;28;20720;-70
2020/12/19 02:15:46;;;;;;;21.15;15.38;;;;;;;0.80;76.03;95782.94;5032940;28;20519;-72
2020/12/19 02:18:12;;;;;;;25.92;17.52;;;;;;;0.76;75.90;95779.97;5030770;28;20128;-71
2020/12/19 02:20:38;;;;;;;18.73;14.27;;;;;;;0.71;76.20;95761.53;5030575;28;20309;-71
2020/12/19 02:23:06;;;;;;;18.15;15.15;;;;;;;0.72;76.10;95759.72;5030625;28;20128;-71
2020/12/19 02:25:36;;;;;;;18.27;13.70;;;;;;;0.67;76.22;95757.78;5030895;28;20045;-71
2020/12/19 02:28:05;;;;;;;16.50;13.52;;;;;;;0.63;76.21;95740.94;5030726;28;20478;-73
2020/12/19 02:30:30;;;;;;;15.85;13.27;;;;;;;0.70;76.30;95751.28;5032699;28;20018;-71
2020/12/19 02:32:56;;;;;;;17.63;14.25;;;;;;;0.65;76.21;95748.53;5029868;28;20631;-71
2020/12/19 02:35:21;;;;;;;22.88;15.82;;;;;;;0.65;75.97;95743.31;5030638;28;20034;-72
2020/12/19 02:37:47;;;;;;;23.08;15.13;;;;;;;0.65;75.88;95741.47;5030305;28;20503;-72
2020/12/19 02:40:12;;;;;;;16.33;13.05;;;;;;;0.60;75.89;95735.34;5030243;28;20064;-71
2020/12/19 02:42:37;;;;;;;16.70;13.32;;;;;;;0.68;75.91;95748.09;5032202;28;20052;-72
2020/12/19 02:45:03;;;;;;;17.40;14.55;;;;;;;0.68;75.68;95745.50;5030415;28;20032;-74
2020/12/19 02:47:28;;;;;;;19.42;15.10;;;;;;;0.56;75.91;95729.75;5029099;28;20465;-72
2020/12/19 02:49:53;;;;;;;19.83;15.32;;;;;;;0.65;75.86;95743.31;5028878;28;20029;-71
2020/12/19 02:52:19;;;;;;;19.95;15.27;;;;;;;0.60;76.19;95735.34;5029909;28;20022;-72
2020/12/19 02:54:44;;;;;;;16.67;13.80;;;;;;;0.60;75.86;95736.13;5032392;28;20505;-71
2020/12/19 02:57:09;;;;;;;17.55;14.18;;;;;;;0.61;76.06;95736.91;5030050;28;20041;-71
2020/12/19 02:59:34;;;;;;;15.82;13.70;;;;;;;0.58;75.86;95732.94;5029535;28;20061;-71
2020/12/19 03:02:00;;;;;;;15.02;13.00;;;;;;;0.58;76.12;95732.94;5029974;28;20067;-71
2020/12/19 03:04:25;;;;;;;14.15;12.35;;;;;;;0.60;76.16;95740.56;5030159;28;20034;-71
2020/12/19 03:06:50;;;;;;;17.35;12.63;;;;;;;0.63;76.11;95753.22;5032036;28;20033;-72
2020/12/19 03:09:18;;;;;;;17.95;13.70;;;;;;;0.54;76.10;95742.28;5028270;28;20034;-72
2020/12/19 03:11:43;;;;;;;13.75;11.35;;;;;;;0.49;76.27;95727.25;5028792;28;20037;-71
2020/12/19 03:14:09;;;;;;;16.92;13.18;;;;;;;0.61;76.13;95742.94;5029856;28;20034;-71
2020/12/19 03:16:34;;;;;;;20.63;15.07;;;;;;;0.51;76.00;95732.25;5029973;28;20034;-72
2020/12/19 03:18:59;;;;;;;19.35;14.25;;;;;;;0.38;75.97;95714.16;5031803;28;20025;-72
2020/12/19 03:21:24;;;;;;;19.02;14.10;;;;;;;0.46;76.15;95727.72;5029504;28;20045;-72
2020/12/19 03:23:50;;;;;;;15.35;12.93;;;;;;;0.52;76.14;95739.88;5029791;28;20033;-72
2020/12/19 03:26:15;;;;;;;16.65;13.82;;;;;;;0.43;76.08;95729.97;5029581;28;20037;-71
2020/12/19 03:28:40;;;;;;;14.65;12.27;;;;;;;0.42;75.99;95738.84;5022445;28;20042;-72
2020/12/19 03:31:06;;;;;;;13.63;11.80;;;;;;;0.40;76.49;95736.44;5009284;28;20188;-71
2020/12/19 03:33:31;;;;;;;13.30;11.48;;;;;;;0.45;75.84;95728.72;5029672;28;20068;-70
2020/12/19 03:35:56;;;;;;;13.00;11.23;;;;;;;0.45;76.00;95744.41;5028439;28;20046;-71
2020/12/19 03:38:22;;;;;;;13.27;11.90;;;;;;;0.40;76.21;95730.41;5028629;28;20037;-72
2020/12/19 03:40:47;;;;;;;14.70;12.00;;;;;;;-0.30;77.84;95737.03;5029310;28;20034;-71
2020/12/19 03:43:12;;;;;;;12.50;11.15;;;;;;;-0.14;77.87;95734.84;5029328;28;20080;-70
2020/12/19 03:45:38;;;;;;;13.85;12.35;;;;;;;-0.27;77.44;95730.56;5031412;28;20061;-72
2020/12/19 03:48:03;;;;;;;13.60;11.45;;;;;;;-1.03;80.56;95715.38;5028974;28;20041;-71
2020/12/19 03:50:28;;;;;;;14.88;12.48;;;;;;;-1.27;82.36;95719.63;5028683;28;20037;-70
2020/12/19 03:52:53;;;;;;;15.13;11.95;;;;;;;-0.88;80.85;95728.88;5029235;28;20049;-71
2020/12/19 03:55:19;;;;;;;17.77;13.35;;;;;;;-0.86;81.21;95748.53;5029001;28;22963;-72
2020/12/19 03:57:44;;;;;;;17.13;13.05;;;;;;;-0.60;80.06;95723.94;5030912;28;20079;-71
2020/12/19 04:00:10;;;;;;;16.70;12.93;;;;;;;-0.66;80.01;95745.72;5028511;28;20045;-71
2020/12/19 04:02:36;;;;;;;15.80;13.00;;;;;;;-0.68;80.27;95745.13;5028838;28;20076;-71
2020/12/19 04:05:03;;;;;;;17.40;12.25;;;;;;;-0.51;79.56;95729.66;5044218;28;20076;-71
2020/12/19 04:07:28;;;;;;;15.07;12.50;;;;;;;-0.47;79.90;95735.25;5029181;28;20085;-71
2020/12/19 04:09:53;;;;;;;14.90;12.18;;;;;;;-0.48;78.89;95737.06;5046247;28;20482;-72
2020/12/19 04:12:19;;;;;;;14.25;12.00;;;;;;;-0.70;79.18;95720.25;5028816;28;20080;-71
2020/12/19 04:14:44;;;;;;;16.05;11.90;;;;;;;-0.88;79.92;95731.47;5029066;28;20087;-71
2020/12/19 04:17:11;;;;;;;16.98;11.45;;;;;;;-0.44;79.05;95740.03;5042669;22;20048;-61
2020/12/19 04:19:38;;;;;;;14.55;11.82;;;;;;;-0.48;78.86;95717.97;5026810;28;20068;-61
2020/12/19 04:22:04;;;;;;;16.33;13.45;;;;;;;-0.42;78.54;95717.06;5031064;28;20029;-62
2020/12/19 04:24:29;;;;;;;14.38;11.48;;;;;;;-0.39;78.33;95719.25;5035636;28;20017;-60
2020/12/19 04:26:54;;;;;;;12.82;11.45;;;;;;;-0.29;77.69;95733.41;5033454;28;20445;-61
2020/12/19 04:29:20;;;;;;;17.95;12.55;;;;;;;-0.22;78.68;95732.50;5034541;28;20038;-60
2020/12/19 04:31:46;;;;;;;13.95;11.70;;;;;;;-0.33;77.94;95700.09;5033509;28;20524;-61
2020/12/19 04:34:11;;;;;;;15.10;12.38;;;;;;;-0.21;77.89;95715.81;5035140;28;20059;-61
2020/12/19 04:36:36;;;;;;;17.77;13.55;;;;;;;-0.39;77.53;95688.69;5036372;28;20029;-64
2020/12/19 04:39:03;;;;;;;15.45;12.55;;;;;;;-0.51;77.55;95672.19;5034150;28;20048;-65
2020/12/19 04:41:29;;;;;;;14.40;12.13;;;;;;;-0.36;77.53;95706.56;5035341;28;20531;-64
2020/12/19 04:43:54;;;;;;;13.75;11.45;;;;;;;-0.14;77.36;95740.06;5035039;28;20041;-61
2020/12/19 04:46:21;;;;;;;18.75;13.10;;;;;;;-0.21;76.83;95734.09;5035803;28;20173;-60
2020/12/19 04:48:47;;;;;;;12.60;11.30;;;;;;;-0.38;76.84;95713.81;5036377;28;20033;-60
2020/12/19 04:51:13;;;;;;;13.57;11.77;;;;;;;-0.31;77.01;95721.56;5034700;28;20049;-60
2020/12/19 04:53:39;;;;;;;15.82;12.20;;;;;;;-0.29;76.75;95719.53;5034535;28;20047;-60
2020/12/19 04:56:05;;;;;;;20.13;13.80;;;;;;;-0.44;76.81;95698.22;5035511;28;20051;-60
2020/12/19 04:58:31;;;;;;;15.15;12.23;;;;;;;-0.43;76.86;95698.00;5035190;28;20487;-60
2020/12/19 05:00:56;;;;;;;18.00;13.05;;;;;;;-0.16;76.76;95742.88;5037945;28;20034;-63
2020/12/19 05:03:21;;;;;;;15.48;12.57;;;;;;;-0.28;77.06;95723.75;5035309;28;20099;-63
2020/12/19 05:05:46;;;;;;;13.88;11.55;;;;;;;-0.23;77.15;95730.94;5035403;28;20053;-62
2020/12/19 05:08:12;;;;;;;13.90;12.38;;;;;;;-0.32;77.04;95712.91;5035522;28;20506;-62
2020/12/19 05:10:38;;;;;;;14.20;11.60;;;;;;;-0.13;76.64;95731.19;5035368;28;20094;-62
2020/12/19 05:13:04;;;;;;;14.63;12.70;;;;;;;-0.24;76.41;95724.91;5035456;28;20120;-61
2020/12/19 05:15:30;;;;;;;14.30;11.90;;;;;;;-0.20;76.48;95728.69;5037830;28;20032;-61
2020/12/19 05:17:57;;;;;;;15.18;12.18;;;;;;;-0.25;76.62;95725.94;5030228;28;20053;-61
2020/12/19 05:20:25;;;;;;;12.10;10.77;;;;;;;-0.19;76.57;95738.09;5035596;28;20499;-60
2020/12/19 05:22:52;;;;;;;15.48;12.13;;;;;;;-0.22;76.15;95735.91;5035675;28;20056;-60
2020/12/19 05:25:19;;;;;;;13.13;11.05;;;;;;;-0.22;76.22;95729.91;5034416;28;20037;-61
2020/12/19 05:27:46;;;;;;;16.60;12.82;;;;;;;-0.18;75.84;95742.31;5035064;28;20048;-61
2020/12/19 05:30:12;;;;;;;14.38;10.95;;;;;;;-0.19;76.24;95732.88;5037363;28;20098;-60
2020/12/19 05:32:52;;;;;;;13.10;11.70;;;;;;;-0.18;75.96;95741.50;5034450;28;20056;-60
2020/12/19 05:35:20;;;;;;;12.70;10.30;;;;;;;-0.27;76.21;95733.16;5032229;28;20140;-61
2020/12/19 05:37:59;;;;;;;13.70;12.02;;;;;;;-0.16;76.42;95744.69;5032387;28;20049;-60
2020/12/19 05:40:26;;;;;;;12.68;10.70;;;;;;;-0.17;76.47;95743.09;5032161;28;20034;-60
2020/12/19 05:42:52;;;;;;;11.20;10.10;;;;;;;-0.16;76.89;95745.50;5032271;28;20113;-60
2020/12/19 05:45:21;;;;;;;16.13;11.55;;;;;;;-0.22;76.41;95735.13;5034382;28;20033;-60
2020/12/19 05:47:47;;;;;;;12.57;10.80;;;;;;;-0.17;76.49;95748.34;5032373;28;20064;-60
2020/12/19 05:50:13;;;;;;;14.25;10.35;;;;;;;-0.18;76.40;95738.91;5030824;28;20068;-60
2020/12/19 05:52:39;;;;;;;14.35;11.60;;;;;;;-0.25;76.28;95738.19;5032136;28;20067;-60
2020/12/19 05:55:12;;;;;;;13.50;11.25;;;;;;;-0.23;76.52;95749.22;5032298;28;20038;-60
2020/12/19 05:57:39;;;;;;;14.00;10.52;;;;;;;-0.28;76.39;95742.03;5031772;28;20025;-61
2020/12/19 06:00:12;;;;;;;12.52;10.73;;;;;;;-0.34;76.56;95740.31;5033621;28;20463;-60
2020/12/19 06:02:39;;;;;;;12.13;10.43;;;;;;;-0.37;76.48;95754.59;5030733;28;20132;-60
2020/12/19 06:05:07;;;;;;;14.48;11.70;;;;;;;-0.39;76.53;95750.63;5030870;28;20478;-59
2020/12/19 06:07:50;;;;;;;12.25;10.25;;;;;;;-0.51;76.44;95734.91;5031876;28;20532;-59
2020/12/19 06:10:17;;;;;;;14.55;11.38;;;;;;;-0.40;76.76;95757.69;5031218;28;20556;-59
2020/12/19 06:13:01;;;;;;;14.80;11.35;;;;;;;-0.32;76.76;95759.19;5031680;28;20466;-61
2020/12/19 06:15:45;;;;;;;20.13;13.63;;;;;;;-0.27;76.63;95762.72;5033794;28;20017;-61
2020/12/19 06:18:29;;;;;;;17.48;13.52;;;;;;;-0.24;76.85;95761.50;5030494;28;20256;-60
2020/12/19 06:20:55;;;;;;;16.20;11.73;;;;;;;-0.10;76.80;95768.16;5031675;28;20058;-60
2020/12/19 06:23:22;;;;;;;12.18;10.32;;;;;;;-0.08;76.31;95766.13;5031179;28;20041;-60
2020/12/19 06:25:47;;;;;;;15.82;11.98;;;;;;;-0.19;76.39;95740.72;5031423;28;20443;-60
2020/12/19 06:28:50;;;;;;;12.95;9.70;;;;;;;0.06;76.18;95763.34;5030974;28;20064;-60
2020/12/19 06:31:19;;;;;;;;;;;;;;;0.07;76.05;95764.91;5031834;28;20129;-58
2020/12/19 06:33:47;;;;;;;10.65;8.95;;;;;;;0.10;76.12;95757.41;5031472;28;19912;-61
2020/12/19 06:36:16;;;;;;;12.63;10.93;;;;;;;0.12;75.81;95765.06;5033123;28;20105;-59
2020/12/19 06:38:43;;;;;;;11.15;9.75;;;;;;;0.11;75.87;95768.69;5031193;28;20084;-61
2020/12/19 06:41:10;;;;;;;9.43;8.38;;;;;;;0.13;75.44;95762.22;5030942;28;20056;-60
2020/12/19 06:43:35;;;;;;;10.32;9.10;;;;;;;0.10;75.44;95761.84;5029654;28;20045;-60
2020/12/19 06:46:01;;;;;;;12.50;10.63;;;;;;;0.07;75.59;95757.06;5029518;28;20045;-59
2020/12/19 06:48:29;;;;;;;10.98;9.88;;;;;;;0.02;75.90;95749.09;5032670;28;20029;-60
2020/12/19 06:51:02;;;;;;;10.23;8.90;;;;;;;0.09;75.78;95758.44;5030763;28;20048;-59
2020/12/19 06:53:29;;;;;;;14.13;10.88;;;;;;;0.02;75.40;95741.25;5029081;28;20050;-59
2020/12/19 06:55:55;;;;;;;11.05;9.02;;;;;;;0.01;75.55;95757.97;5030444;28;20380;-59
2020/12/19 06:58:34;;;;;;;12.55;10.40;;;;;;;0.01;75.28;95758.75;5030025;28;20125;-59
2020/12/19 07:01:01;;;;;;;12.57;9.98;;;;;;;0.08;75.27;95761.28;5030792;28;20033;-61
2020/12/19 07:03:55;;;;;;;9.50;8.07;;;;;;;0.15;75.43;95772.44;5032583;28;20537;-60
2020/12/19 07:06:21;;;;;;;9.70;8.73;;;;;;;0.05;75.20;95748.63;5012996;28;20111;-60
2020/12/19 07:08:46;;;;;;;12.27;10.98;;;;;;;0.00;75.43;95733.63;5030472;28;20427;-61
2020/12/19 07:11:14;;;;;;;10.57;8.80;;;;;;;0.21;75.36;95758.50;5030586;28;20367;-60
2020/12/19 07:13:57;;;;;;;11.15;9.00;;;;;;;0.33;75.52;95768.97;5029250;28;20033;-60
2020/12/19 07:16:48;;;;;;;9.45;8.48;;;;;;;0.43;74.98;95769.22;5030375;28;20041;-60
2020/12/19 07:19:22;;;;;;;8.93;8.13;;;;;;;0.45;74.68;95764.56;5030361;28;20046;-60
2020/12/19 07:21:47;;;;;;;11.95;10.75;;;;;;;0.25;74.43;95730.84;5030375;28;20033;-61
2020/12/19 07:24:13;;;;;;;10.00;7.82;;;;;;;0.40;74.53;95754.75;5032423;28;20052;-61
2020/12/19 07:26:39;;;;;;;9.52;8.45;;;;;;;0.48;74.26;95777.22;5030233;28;20140;-61
2020/12/19 07:29:19;;;;;;;11.25;9.50;;;;;;;0.57;74.48;95772.44;5029682;28;20045;-59
2020/12/19 07:31:46;;;;;;;8.40;7.47;;;;;;;0.55;74.20;95777.09;5030017;28;20045;-60
2020/12/19 07:34:11;;;;;;;11.27;10.10;;;;;;;0.53;74.20;95777.34;5030333;28;20049;-61
2020/12/19 07:36:43;;;;;;;9.10;8.23;;;;;;;0.62;74.20;95791.69;5031805;28;20513;-60
2020/12/19 07:39:09;;;;;;;9.05;8.15;;;;;;;0.73;74.21;95790.13;5030397;28;20072;-61
2020/12/19 07:41:35;;;;;;;9.55;8.63;;;;;;;0.64;73.66;95766.06;5029979;28;20069;-61
2020/12/19 07:44:10;;;;;;;11.55;10.20;;;;;;;0.86;73.71;95787.25;5030251;28;20536;-60
2020/12/19 07:46:35;;;;;;;10.10;9.10;;;;;;;0.92;73.46;95786.38;5030274;28;20038;-62
2020/12/19 07:49:01;;;;;;;9.80;8.90;;;;;;;0.90;73.24;95762.22;5027528;28;20059;-61
2020/12/19 07:51:26;;;;;;;10.50;8.77;;;;;;;1.17;73.11;95794.00;5030961;28;20877;-60
2020/12/19 07:53:51;;;;;;;10.05;8.23;;;;;;;1.12;72.17;95770.31;5029666;28;20091;-61
2020/12/19 07:56:18;;;;;;;8.40;7.60;;;;;;;1.16;72.03;95760.16;5029121;28;20115;-60
2020/12/19 07:58:46;;;;;;;8.82;8.00;;;;;;;1.49;71.99;95791.81;5028673;28;20042;-61
2020/12/19 08:01:12;;;;;;;7.68;6.70;;;;;;;1.63;71.16;95791.56;5028435;28;20128;-61
2020/12/19 08:03:37;;;;;;;7.65;6.88;;;;;;;1.59;70.97;95772.06;5030394;28;20116;-59
2020/12/19 08:06:02;;;;;;;7.57;6.88;;;;;;;1.77;70.73;95779.78;5029323;28;20048;-60
2020/12/19 08:08:28;;;;;;;7.65;6.95;;;;;;;1.91;69.78;95789.00;5029688;28;20509;-59
2020/12/19 08:11:01;;;;;;;8.30;6.93;;;;;;;1.87;69.59;95772.13;5029704;28;20124;-60
2020/12/19 08:13:26;;;;;;;8.40;7.60;;;;;;;2.10;69.14;95794.88;5029337;28;20052;-60
2020/12/19 08:15:55;;;;;;;7.72;7.03;;;;;;;2.09;69.27;95785.38;5029637;28;20037;-60
2020/12/19 08:18:21;;;;;;;7.93;6.97;;;;;;;2.07;68.97;95771.69;5029792;28;20374;-61
2020/12/19 08:20:47;;;;;;;8.13;7.32;;;;;;;2.36;68.42;95796.13;5029557;28;20554;-62
2020/12/19 08:23:13;;;;;;;7.53;6.82;;;;;;;2.34;68.04;95779.78;5029493;28;20048;-64
2020/12/19 08:25:39;;;;;;;9.82;8.95;;;;;;;2.26;67.55;95798.56;5029737;28;20120;-64
2020/12/19 08:28:05;;;;;;;9.32;8.32;;;;;;;2.16;67.58;95801.78;5028689;28;20095;-64
2020/12/19 08:30:32;;;;;;;9.45;8.65;;;;;;;2.22;68.21;95802.69;5031236;28;20041;-64
2020/12/19 08:32:59;;;;;;;8.25;7.45;;;;;;;2.29;68.25;95805.94;5029611;28;20042;-62
2020/12/19 08:35:41;;;;;;;8.02;7.30;;;;;;;2.39;68.08;95811.38;5029562;28;20395;-62
2020/12/19 08:38:08;;;;;;;8.00;7.20;;;;;;;2.59;67.70;95800.44;5029213;28;20042;-61
2020/12/19 08:40:39;;;;;;;7.40;6.70;;;;;;;2.70;67.06;95796.16;5027939;28;20276;-65
2020/12/19 08:43:06;;;;;;;6.67;6.07;;;;;;;2.89;66.64;95799.34;5029002;28;20053;-62
2020/12/19 08:45:41;;;;;;;7.72;7.03;;;;;;;3.06;66.25;95808.03;5031095;28;20463;-63
2020/12/19 08:48:22;;;;;;;7.80;7.00;;;;;;;3.02;65.66;95805.09;5028102;28;20132;-63
2020/12/19 08:50:52;;;;;;;7.18;6.57;;;;;;;3.00;66.10;95798.47;5027390;28;20132;-62
2020/12/19 08:53:20;;;;;;;9.60;8.60;;;;;;;2.83;65.81;95806.34;5028976;28;20458;-62
2020/12/19 08:55:46;;;;;;;8.23;7.43;;;;;;;3.06;65.71;95814.06;5027612;28;20046;-62
2020/12/19 08:58:21;;;;;;;9.98;8.18;;;;;;;2.99;65.71;95816.06;5028779;28;20045;-62
2020/12/19 09:00:47;;;;;;;8.32;7.53;;;;;;;3.09;65.47;95823.31;5029159;28;20045;-62
2020/12/19 09:03:12;;;;;;;7.90;7.10;;;;;;;3.14;65.81;95807.63;5030699;28;20079;-62
2020/12/19 09:05:42;;;;;;;8.85;8.05;;;;;;;3.35;65.83;95803.47;5029110;28;20083;-62
2020/12/19 09:08:12;;;;;;;8.52;7.60;;;;;;;3.44;64.65;95804.66;5029248;28;20048;-62
2020/12/19 09:10:38;;;;;;;13.32;8.55;;;;;;;3.45;64.76;95819.38;5031485;28;20053;-62
2020/12/19 09:13:15;;;;;;;9.75;8.75;;;;;;;3.48;65.05;95818.91;5032683;28;20045;-62
2020/12/19 09:15:42;;;;;;;8.38;7.68;;;;;;;3.41;65.37;95820.09;5032586;28;20379;-63
2020/12/19 09:18:22;;;;;;;9.30;8.38;;;;;;;3.27;65.06;95819.63;5034638;28;20486;-61
2020/12/19 09:20:58;;;;;;;7.85;7.20;;;;;;;3.11;65.66;95822.03;5032325;28;20392;-62
2020/12/19 09:23:25;;;;;;;8.48;7.75;;;;;;;3.27;65.23;95817.00;5031793;28;20067;-65
2020/12/19 09:25:53;;;;;;;7.63;6.93;;;;;;;3.30;65.81;95821.78;5032335;28;20037;-61
2020/12/19 09:28:19;;;;;;;9.52;8.70;;;;;;;3.48;65.19;95810.19;5030253;28;20059;-61
2020/12/19 09:30:44;;;;;;;9.05;7.57;;;;;;;3.68;64.81;95807.03;5032127;28;20029;-58
2020/12/19 09:33:10;;;;;;;7.82;7.13;;;;;;;3.85;64.34;95820.97;5034073;28;20041;-61
2020/12/19 09:35:35;;;;;;;7.45;6.75;;;;;;;3.93;64.08;95810.00;5032051;28;20091;-63
2020/12/19 09:38:01;;;;;;;6.82;6.22;;;;;;;4.24;63.76;95811.13;5031095;28;20045;-59
2020/12/19 09:40:26;;;;;;;8.00;7.20;;;;;;;4.31;63.05;95808.31;5032204;28;20135;-65
2020/12/19 09:42:52;;;;;;;7.88;7.18;;;;;;;4.42;63.08;95799.47;5031906;28;20087;-61
2020/12/19 09:45:17;;;;;;;6.95;6.35;;;;;;;4.52;63.01;95807.47;5034116;28;20397;-62
2020/12/19 09:47:43;;;;;;;7.55;6.75;;;;;;;4.41;62.28;95782.88;5031468;28;20046;-65
2020/12/19 09:50:09;;;;;;;6.80;6.10;;;;;;;4.38;62.19;95774.69;5031791;28;20501;-61
2020/12/19 09:52:35;;;;;;;7.88;7.07;;;;;;;4.47;61.98;95770.56;5032038;28;20034;-62
2020/12/19 09:55:01;;;;;;;6.95;6.35;;;;;;;4.16;61.24;95746.56;5031368;28;20482;-67
2020/12/19 09:57:26;;;;;;;7.45;6.75;;;;;;;4.34;62.03;95768.31;5033486;28;20586;-65
2020/12/19 09:59:52;;;;;;;7.82;7.03;;;;;;;3.85;61.80;95684.13;5031110;28;20041;-66
2020/12/19 10:02:17;;;;;;;7.32;6.57;;;;;;;4.44;61.61;95784.22;5030243;28;20045;-64
2020/12/19 10:04:42;;;;;;;7.55;6.85;;;;;;;4.49;62.18;95767.66;5031733;28;20033;-65
2020/12/19 10:07:07;;;;;;;9.18;7.00;;;;;;;4.38;62.14;95738.59;5027826;28;20049;-66
2020/12/19 10:09:33;;;;;;;8.20;7.15;;;;;;;3.13;60.83;95604.44;5033483;28;20471;-60
2020/12/19 10:11:58;;;;;;;8.15;7.38;;;;;;;4.31;61.82;95795.16;5030982;28;20038;-66
2020/12/19 10:14:23;;;;;;;7.72;7.03;;;;;;;4.52;62.38;95804.84;5031367;28;20160;-64
2020/12/19 10:16:48;;;;;;;8.30;7.53;;;;;;;4.54;62.37;95789.56;5030890;28;20045;-64
2020/12/19 10:19:14;;;;;;;8.60;7.85;;;;;;;4.67;62.62;95791.81;5029834;28;20041;-64
2020/12/19 10:21:39;;;;;;;9.00;7.68;;;;;;;4.49;62.58;95749.22;5032465;28;20038;-64
2020/12/19 10:24:05;;;;;;;7.80;7.10;;;;;;;4.80;62.26;95779.25;5031317;28;20053;-64
2020/12/19 10:26:30;;;;;;;7.75;6.95;;;;;;;4.64;61.99;95739.59;5029996;28;20045;-66
2020/12/19 10:28:55;;;;;;;9.23;8.32;;;;;;;4.99;60.94;95785.75;5030261;28;20080;-66
2020/12/19 10:31:27;;;;;;;7.65;6.95;;;;;;;5.12;61.28;95772.13;5028559;28;20053;-65
2020/12/19 10:33:53;;;;;;;9.38;8.48;;;;;;;5.13;60.19;95754.47;5031061;28;20034;-63
2020/12/19 10:36:18;;;;;;;7.90;7.22;;;;;;;5.16;60.07;95746.03;5032969;28;20037;-60
2020/12/19 10:38:43;;;;;;;8.23;7.53;;;;;;;5.36;60.15;95787.56;5030962;28;20037;-61
2020/12/19 10:41:11;;;;;;;8.65;7.80;;;;;;;5.09;59.97;95740.19;5030735;28;20100;-62
2020/12/19 10:43:37;;;;;;;8.05;7.35;;;;;;;5.46;60.05;95769.94;5029260;28;20038;-61
2020/12/19 10:46:02;;;;;;;7.63;6.95;;;;;;;5.36;59.67;95766.47;5030731;28;20084;-61
2020/12/19 10:48:27;;;;;;;10.65;9.07;;;;;;;5.22;59.94;95726.56;5031604;28;20489;-61
2020/12/19 10:50:52;;;;;;;9.18;8.13;;;;;;;5.20;60.27;95723.38;5030881;28;20041;-63
2020/12/19 10:53:18;;;;;;;9.45;8.55;;;;;;;5.17;60.62;95708.88;5030284;28;20117;-61
2020/12/19 10:55:43;;;;;;;8.85;8.07;;;;;;;5.55;60.21;95756.28;5030613;28;20037;-61
2020/12/19 10:58:08;;;;;;;9.20;8.40;;;;;;;5.48;60.05;95743.34;5030000;28;20041;-66
2020/12/19 11:00:33;;;;;;;9.75;7.75;;;;;;;5.53;60.07;95747.81;5032541;28;20021;-66
2020/12/19 11:02:59;;;;;;;8.48;7.45;;;;;;;5.35;59.86;95705.00;5027490;28;20034;-65
2020/12/19 11:05:24;;;;;;;9.07;8.15;;;;;;;5.41;60.14;95729.56;5027759;28;20041;-65
2020/12/19 11:07:49;;;;;;;9.07;8.25;;;;;;;5.57;60.12;95760.25;5030692;28;20380;-64
2020/12/19 11:10:14;;;;;;;10.50;9.27;;;;;;;5.24;59.83;95713.91;5030260;28;20144;-65
2020/12/19 11:12:40;;;;;;;10.32;9.43;;;;;;;5.20;61.18;95758.47;5030504;28;20029;-62
2020/12/19 11:15:05;;;;;;;11.77;9.55;;;;;;;5.12;61.22;95755.53;5032487;28;20025;-64
2020/12/19 11:17:31;;;;;;;10.80;9.88;;;;;;;4.99;61.37;95782.31;5030208;28;20266;-66
2020/12/19 11:19:57;;;;;;;11.85;10.85;;;;;;;4.76;62.66;95752.63;5027857;28;20516;-63
2020/12/19 11:22:22;;;;;;;10.40;9.38;;;;;;;4.62;62.84;95746.19;5028888;28;20076;-66
2020/12/19 11:24:48;;;;;;;11.25;10.25;;;;;;;4.35;63.27;95725.94;5030273;28;20037;-65
2020/12/19 11:27:13;;;;;;;12.18;11.07;;;;;;;4.03;63.86;95702.19;5032422;28;20045;-64
2020/12/19 11:29:39;;;;;;;15.48;11.27;;;;;;;3.97;64.37;95707.66;5029348;28;20033;-67